Current Conditions
Mostly Cloudy
Conditions



Pressure
1010.92 (hPa) - 29.85 (inHG)
Visibility

3.7 (miles) - 6.0 (km)
Temperature
18  °C
Temperature
16  °C
Dewpoint
88  %
 Humidity
Wind Speed
16  mph
14  kts
26  km/h
7.2  m/s
Wind Direction
N
45°
E
90°
135°
S
180°
225°
W
270°
315°
 210°

South South
West
Airport Data
EGHI
Southampton Airport
Metar :EGHI 191720Z 21014KT 6000 BKN012 18/16 Q1011
Tue 19th October 18:20 pm
Raw Metar Info
Raw METAR is the most common format in the world for the transmission of observational weather data. It is highly standardized through the International Civil Aviation Organization (ICAO), which allows it to be understood throughout most of the world.
API Info
Data Provided by
https://www.checkwx.com/weather/EGHI

Aviation Weather providing METAR, TAF, AIRMET, SIGMET and OUTLOOK Weather Reports
© Info
CSS/SVG/PHP scripts were developed by weather34.com for use in the weather34 template © 2015-2021

Guide Info provided by Metar-Wikipedia